createdAt,value
2022-08-17T00:00:42.626Z,72.09
2022-08-17T00:01:44.949Z,71.69
2022-08-17T00:02:32.698Z,71.26
2022-08-17T00:03:32.594Z,71.39
2022-08-17T00:04:32.541Z,71.29
2022-08-17T00:05:32.506Z,70.06
2022-08-17T00:06:32.470Z,71.36
2022-08-17T00:07:32.435Z,71.26
2022-08-17T00:08:32.417Z,70.03
2022-08-17T00:09:32.372Z,70.16
2022-08-17T00:10:32.510Z,70.32
2022-08-17T00:11:32.291Z,70.95
2022-08-17T00:12:42.997Z,72.16
2022-08-17T00:13:32.234Z,71.36
2022-08-17T00:14:32.184Z,71.56
2022-08-17T00:15:32.151Z,72.25
2022-08-17T00:16:56.199Z,72.25
2022-08-17T00:17:32.080Z,74.05
2022-08-17T00:19:01.685Z,72.19
2022-08-17T00:19:32.010Z,73.19
2022-08-17T00:20:35.032Z,73.88
2022-08-17T00:21:59.922Z,74.38
2022-08-17T00:22:36.445Z,74.02
2022-08-17T00:23:31.869Z,73.92
2022-08-17T00:24:31.841Z,72.22
2022-08-17T00:25:31.797Z,74.42
2022-08-17T00:26:43.162Z,73.72
2022-08-17T00:27:31.727Z,73.22
2022-08-17T00:28:33.273Z,73.62
2022-08-17T00:29:31.656Z,72.72
2022-08-17T00:30:31.618Z,71.89
2022-08-17T00:31:31.597Z,71.75
2022-08-17T00:33:15.853Z,72.55
2022-08-17T00:33:31.808Z,72.16
2022-08-17T00:34:31.478Z,71.36
2022-08-17T00:35:31.447Z,71.66
2022-08-17T00:36:31.414Z,71.36
2022-08-17T00:37:31.371Z,70.65
2022-08-17T00:38:31.339Z,69.02
2022-08-17T00:39:31.348Z,70.62
2022-08-17T00:40:44.200Z,71.72
2022-08-17T00:41:31.226Z,71.12
2022-08-17T00:42:31.458Z,72.32
2022-08-17T00:43:31.154Z,70.36
2022-08-17T00:44:31.351Z,71.45
2022-08-17T00:45:31.092Z,72.16
2022-08-17T00:46:31.049Z,70.76
2022-08-17T00:47:31.012Z,72.05
2022-08-17T00:48:31.033Z,71.36
2022-08-17T00:49:30.941Z,69.86
2022-08-17T00:50:30.909Z,70.95
2022-08-17T00:51:30.891Z,71.02
2022-08-17T00:52:30.835Z,70.42
2022-08-17T00:53:30.802Z,70.53
2022-08-17T00:54:30.766Z,70.92
2022-08-17T00:55:30.729Z,72.32
2022-08-17T00:56:30.693Z,70.95
2022-08-17T00:57:30.671Z,72.45
2022-08-17T00:58:36.626Z,70.89
2022-08-17T00:59:30.594Z,71.86
2022-08-17T01:00:30.558Z,72.45
2022-08-17T01:01:30.600Z,72.85
2022-08-17T01:02:30.482Z,72.49
2022-08-17T01:03:30.446Z,71.89
2022-08-17T01:04:30.414Z,74.08
2022-08-17T01:05:30.371Z,72.39
2022-08-17T01:06:30.341Z,74.02
2022-08-17T01:07:30.314Z,73.32
2022-08-17T01:08:30.269Z,74.52
2022-08-17T01:09:30.230Z,74.42
2022-08-17T01:11:00.629Z,76.35
2022-08-17T01:11:30.162Z,76.26
2022-08-17T01:12:30.125Z,75.99
2022-08-17T01:13:30.103Z,77.99
2022-08-17T01:14:30.064Z,78.23
2022-08-17T01:15:30.016Z,77.83
2022-08-17T01:16:29.983Z,77.63
2022-08-17T01:17:29.946Z,77.36
2022-08-17T01:18:29.914Z,78.36
2022-08-17T01:19:29.886Z,78.86
2022-08-17T01:20:29.842Z,80.47
2022-08-17T01:21:29.803Z,79.91
2022-08-17T01:22:29.772Z,79.00
2022-08-17T01:23:29.733Z,79.21
2022-08-17T01:24:29.693Z,79.80
2022-08-17T01:25:29.674Z,79.85
2022-08-17T01:26:29.625Z,80.30
2022-08-17T01:27:29.588Z,80.94
2022-08-17T01:28:53.122Z,81.65
2022-08-17T01:29:29.520Z,81.15
2022-08-17T01:30:58.136Z,81.35
2022-08-17T01:31:29.456Z,82.35
2022-08-17T01:32:29.410Z,81.74
2022-08-17T01:33:29.377Z,82.39
2022-08-17T01:34:43.459Z,82.99
2022-08-17T01:35:29.302Z,82.89
2022-08-17T01:36:29.266Z,82.59
2022-08-17T01:37:29.242Z,83.59
2022-08-17T01:38:29.209Z,83.59
2022-08-17T01:39:29.207Z,83.93
2022-08-17T01:40:29.123Z,84.03
2022-08-17T01:41:29.085Z,83.93
2022-08-17T01:42:29.053Z,84.63
2022-08-17T01:43:29.024Z,84.43
2022-08-17T01:44:28.981Z,84.74
2022-08-17T01:45:28.944Z,85.24
2022-08-17T01:46:28.904Z,85.24
2022-08-17T01:47:29.855Z,85.03
2022-08-17T01:48:28.844Z,85.78
2022-08-17T01:49:28.798Z,85.68
2022-08-17T01:50:28.763Z,85.88
2022-08-17T01:51:28.723Z,86.08
2022-08-17T01:52:28.688Z,85.97
2022-08-17T01:53:28.652Z,85.61
2022-08-17T01:54:28.627Z,85.61
2022-08-17T01:55:28.597Z,86.32
2022-08-17T01:56:28.542Z,85.92
2022-08-17T01:57:28.508Z,86.12
2022-08-17T01:58:28.474Z,86.12
2022-08-17T01:59:28.433Z,86.32
2022-08-17T02:00:28.417Z,86.56
2022-08-17T02:01:28.414Z,87.22
2022-08-17T02:02:30.960Z,86.12
2022-08-17T02:03:28.291Z,86.36
2022-08-17T02:04:28.253Z,86.66
2022-08-17T02:05:28.216Z,87.57
2022-08-17T02:06:28.496Z,87.57
2022-08-17T02:07:28.155Z,87.37
2022-08-17T02:08:37.011Z,87.96
2022-08-17T02:09:29.800Z,87.77
2022-08-17T02:10:33.913Z,88.07
2022-08-17T02:11:27.998Z,87.46
2022-08-17T02:12:37.702Z,88.17
2022-08-17T02:13:27.927Z,87.57
2022-08-17T02:14:27.891Z,87.57
2022-08-17T02:15:27.854Z,87.57
2022-08-17T02:16:27.819Z,88.17
2022-08-17T02:17:27.781Z,87.46
2022-08-17T02:18:27.759Z,87.46
2022-08-17T02:19:27.709Z,87.46
2022-08-17T02:20:41.402Z,87.87
2022-08-17T02:21:27.638Z,87.77
2022-08-17T02:22:27.601Z,88.27
2022-08-17T02:23:27.565Z,89.22
2022-08-17T02:25:00.252Z,87.91
2022-08-17T02:25:27.491Z,88.31
2022-08-17T02:26:27.457Z,87.51
2022-08-17T02:27:27.419Z,87.81
2022-08-17T02:28:27.381Z,88.11
2022-08-17T02:29:27.345Z,89.11
2022-08-17T02:30:59.242Z,88.01
2022-08-17T02:31:27.273Z,88.41
2022-08-17T02:32:28.256Z,87.30
2022-08-17T02:33:41.693Z,87.81
2022-08-17T02:34:27.162Z,88.01
2022-08-17T02:35:27.124Z,88.01
2022-08-17T02:36:27.642Z,88.11
2022-08-17T02:37:27.053Z,87.71
2022-08-17T02:38:27.017Z,88.51
2022-08-17T02:39:27.025Z,87.81
2022-08-17T02:40:36.636Z,87.71
2022-08-17T02:41:26.912Z,88.01
2022-08-17T02:42:26.872Z,88.81
2022-08-17T02:43:26.832Z,88.81
2022-08-17T02:44:39.010Z,88.21
2022-08-17T02:45:26.763Z,88.11
2022-08-17T02:46:26.743Z,87.81
2022-08-17T02:47:26.687Z,88.31
2022-08-17T02:48:30.813Z,87.81
2022-08-17T02:49:26.617Z,88.51
2022-08-17T02:50:26.578Z,88.51
2022-08-17T02:51:26.541Z,89.01
2022-08-17T02:52:42.505Z,88.41
2022-08-17T02:53:26.469Z,89.06
2022-08-17T02:54:39.773Z,88.91
2022-08-17T02:55:26.395Z,87.85
2022-08-17T02:56:26.363Z,88.11
2022-08-17T02:57:26.345Z,89.56
2022-08-17T02:58:34.706Z,88.55
2022-08-17T02:59:26.247Z,89.86
2022-08-17T03:00:26.215Z,89.56
2022-08-17T03:01:26.227Z,89.86
2022-08-17T03:02:26.140Z,89.76
2022-08-17T03:03:26.114Z,89.26
2022-08-17T03:04:26.069Z,89.56
2022-08-17T03:05:26.029Z,89.96
2022-08-17T03:06:25.994Z,89.86
2022-08-17T03:07:25.957Z,89.76
2022-08-17T03:08:25.937Z,89.86
2022-08-17T03:09:25.885Z,89.76
2022-08-17T03:10:25.848Z,89.66
2022-08-17T03:11:25.809Z,89.86
2022-08-17T03:12:25.776Z,89.86
2022-08-17T03:13:25.734Z,90.86
2022-08-17T03:14:26.225Z,90.26
2022-08-17T03:15:25.661Z,89.36
2022-08-17T03:16:25.627Z,90.86
2022-08-17T03:17:25.588Z,90.97
2022-08-17T03:18:26.402Z,90.77
2022-08-17T03:19:25.517Z,90.66
2022-08-17T03:20:25.506Z,90.86
2022-08-17T03:21:25.441Z,90.46
2022-08-17T03:22:47.939Z,90.46
2022-08-17T03:23:25.708Z,90.46
2022-08-17T03:24:28.738Z,91.37
2022-08-17T03:25:25.297Z,90.26
2022-08-17T03:26:25.277Z,91.17
2022-08-17T03:27:25.225Z,91.17
2022-08-17T03:28:25.187Z,90.97
2022-08-17T03:29:25.151Z,91.27
2022-08-17T03:30:25.115Z,91.67
2022-08-17T03:31:25.092Z,91.06
2022-08-17T03:32:25.064Z,91.41
2022-08-17T03:33:25.004Z,91.17
2022-08-17T03:34:24.970Z,91.17
2022-08-17T03:35:24.931Z,90.86
2022-08-17T03:36:24.896Z,90.97
2022-08-17T03:37:24.868Z,90.86
2022-08-17T03:38:24.823Z,91.06
2022-08-17T03:39:24.798Z,91.37
2022-08-17T03:40:36.957Z,91.31
2022-08-17T03:41:24.723Z,90.91
2022-08-17T03:42:31.928Z,91.31
2022-08-17T03:43:24.645Z,91.21
2022-08-17T03:44:24.604Z,91.97
2022-08-17T03:45:24.567Z,91.41
2022-08-17T03:46:28.581Z,91.61
2022-08-17T03:47:24.504Z,91.91
2022-08-17T03:48:24.467Z,91.91
2022-08-17T03:49:24.418Z,91.51
2022-08-17T03:50:24.386Z,91.21
2022-08-17T03:51:24.344Z,91.82
2022-08-17T03:52:24.308Z,91.31
2022-08-17T03:53:24.267Z,90.81
2022-08-17T03:54:24.253Z,91.25
2022-08-17T03:55:35.810Z,91.86
2022-08-17T03:56:24.162Z,91.66
2022-08-17T03:57:24.126Z,91.46
2022-08-17T03:58:24.092Z,91.15
2022-08-17T03:59:24.049Z,91.46
2022-08-17T04:00:24.026Z,91.05
2022-08-17T04:01:24.007Z,91.25
2022-08-17T04:02:23.942Z,91.35
2022-08-17T04:03:23.903Z,91.46
2022-08-17T04:04:27.540Z,91.66
2022-08-17T04:05:23.834Z,91.86
2022-08-17T04:06:23.816Z,91.55
2022-08-17T04:07:23.759Z,91.55
2022-08-17T04:08:23.721Z,91.66
2022-08-17T04:09:23.683Z,91.55
2022-08-17T04:10:26.385Z,91.66
2022-08-17T04:11:23.613Z,91.25
2022-08-17T04:12:23.593Z,91.66
2022-08-17T04:13:24.816Z,92.46
2022-08-17T04:14:23.502Z,91.86
2022-08-17T04:15:23.461Z,92.06
2022-08-17T04:16:23.426Z,92.46
2022-08-17T04:17:23.417Z,92.16
2022-08-17T04:18:23.370Z,91.96
2022-08-17T04:19:23.313Z,92.56
2022-08-17T04:20:23.278Z,92.56
2022-08-17T04:21:23.242Z,92.16
2022-08-17T04:22:32.817Z,92.06
2022-08-17T04:23:23.185Z,92.36
2022-08-17T04:24:23.137Z,92.16
2022-08-17T04:25:23.094Z,91.96
2022-08-17T04:26:53.422Z,91.86
2022-08-17T04:27:23.021Z,91.66
2022-08-17T04:28:22.989Z,91.25
2022-08-17T04:29:22.967Z,91.46
2022-08-17T04:30:22.931Z,91.86
2022-08-17T04:31:22.876Z,91.35
2022-08-17T04:33:04.503Z,91.66
2022-08-17T04:33:22.800Z,92.32
2022-08-17T04:34:22.763Z,92.36
2022-08-17T04:35:22.739Z,92.61
2022-08-17T04:36:22.689Z,92.61
2022-08-17T04:37:22.652Z,92.11
2022-08-17T04:38:22.618Z,91.71
2022-08-17T04:39:22.577Z,91.01
2022-08-17T04:40:22.549Z,91.06
2022-08-17T04:41:22.517Z,91.06
2022-08-17T04:42:22.486Z,90.77
2022-08-17T04:43:22.448Z,91.17
2022-08-17T04:44:27.291Z,90.52
2022-08-17T04:45:22.358Z,90.02
2022-08-17T04:46:22.321Z,89.51
2022-08-17T04:47:22.287Z,89.92
2022-08-17T04:48:22.261Z,89.01
2022-08-17T04:49:22.211Z,88.11
2022-08-17T04:50:22.175Z,87.96
2022-08-17T04:51:22.137Z,88.07
2022-08-17T04:52:37.467Z,87.37
2022-08-17T04:53:22.079Z,87.06
2022-08-17T04:54:22.026Z,86.56
2022-08-17T04:55:21.992Z,86.52
2022-08-17T04:56:21.955Z,87.32
2022-08-17T04:57:21.919Z,88.27
2022-08-17T04:58:21.883Z,88.43
2022-08-17T04:59:21.861Z,88.23
2022-08-17T05:00:21.818Z,88.23
2022-08-17T05:01:23.931Z,87.62
2022-08-17T05:02:21.733Z,87.73
2022-08-17T05:03:21.700Z,88.93
2022-08-17T05:04:33.891Z,87.78
2022-08-17T05:05:21.625Z,87.38
2022-08-17T05:06:21.586Z,87.18
2022-08-17T05:07:24.614Z,87.28
2022-08-17T05:08:21.509Z,87.58
2022-08-17T05:09:21.479Z,87.34
2022-08-17T05:10:21.444Z,86.84
2022-08-17T05:11:21.424Z,86.64
2022-08-17T05:12:21.369Z,86.64
2022-08-17T05:13:21.332Z,86.24
2022-08-17T05:14:21.304Z,85.49
2022-08-17T05:15:21.258Z,85.19
2022-08-17T05:16:21.223Z,85.99
2022-08-17T05:17:21.197Z,85.60
2022-08-17T05:18:21.156Z,84.39
2022-08-17T05:19:21.116Z,84.89
2022-08-17T05:20:21.079Z,85.19
2022-08-17T05:21:21.044Z,84.49
2022-08-17T05:22:21.007Z,84.79
2022-08-17T05:23:20.985Z,80.38
2022-08-17T05:24:40.708Z,82.99
2022-08-17T05:25:20.894Z,79.98
2022-08-17T05:26:26.673Z,79.24
2022-08-17T05:27:20.825Z,82.81
2022-08-17T05:28:23.480Z,77.64
2022-08-17T05:29:20.765Z,79.10
2022-08-17T05:30:20.722Z,78.17
2022-08-17T05:31:20.693Z,80.36
2022-08-17T05:32:38.701Z,78.17
2022-08-17T05:33:20.607Z,78.13
2022-08-17T05:34:20.574Z,74.89
2022-08-17T05:35:20.538Z,74.69
2022-08-17T05:36:38.097Z,74.26
2022-08-17T05:37:20.494Z,73.22
2022-08-17T05:38:20.428Z,72.39
2022-08-17T05:39:20.395Z,71.99
2022-08-17T05:40:20.356Z,72.25
2022-08-17T05:41:20.326Z,72.09
2022-08-17T05:42:20.280Z,72.95
2022-08-17T05:43:20.264Z,70.86
2022-08-17T05:44:20.215Z,71.36
2022-08-17T05:45:54.517Z,72.92
2022-08-17T05:46:20.150Z,72.12
2022-08-17T05:47:20.108Z,72.92
2022-08-17T05:48:20.068Z,71.52
2022-08-17T05:49:20.052Z,70.53
2022-08-17T05:50:23.229Z,69.89
2022-08-17T05:51:19.968Z,68.76
2022-08-17T05:52:20.381Z,70.95
2022-08-17T05:53:19.898Z,68.66
2022-08-17T05:54:19.875Z,68.63
2022-08-17T05:55:19.825Z,69.73
2022-08-17T05:56:29.208Z,70.03
2022-08-17T05:57:21.010Z,67.10
2022-08-17T05:58:19.715Z,68.00
2022-08-17T05:59:19.697Z,66.57
2022-08-17T06:00:20.404Z,66.08
2022-08-17T06:01:19.690Z,65.58
2022-08-17T06:02:19.591Z,68.37
2022-08-17T06:03:19.576Z,67.67
2022-08-17T06:04:19.503Z,68.23
2022-08-17T06:05:19.500Z,68.43
2022-08-17T06:06:19.435Z,67.17
2022-08-17T06:07:19.402Z,69.13
2022-08-17T06:08:19.372Z,69.36
2022-08-17T06:09:25.732Z,70.09
2022-08-17T06:10:19.441Z,70.72
2022-08-17T06:11:19.816Z,71.15
2022-08-17T06:12:19.226Z,71.85
2022-08-17T06:13:19.191Z,72.45
2022-08-17T06:14:19.168Z,72.35
2022-08-17T06:15:19.131Z,72.05
2022-08-17T06:16:33.655Z,71.45
2022-08-17T06:17:19.560Z,70.95
2022-08-17T06:18:19.331Z,71.29
2022-08-17T06:19:18.998Z,71.72
2022-08-17T06:20:18.949Z,72.32
2022-08-17T06:21:18.924Z,72.38
2022-08-17T06:22:18.881Z,72.19
2022-08-17T06:23:18.842Z,72.38
2022-08-17T06:24:18.806Z,70.95
2022-08-17T06:25:18.776Z,71.55
2022-08-17T06:26:18.738Z,70.56
2022-08-17T06:27:18.726Z,70.22
2022-08-17T06:28:18.672Z,69.92
2022-08-17T06:29:19.102Z,68.63
2022-08-17T06:30:18.614Z,68.43
2022-08-17T06:31:18.576Z,69.23
2022-08-17T06:32:18.535Z,69.92
2022-08-17T06:33:18.510Z,69.32
2022-08-17T06:34:18.463Z,70.03
2022-08-17T06:35:18.424Z,70.09
2022-08-17T06:36:18.393Z,69.69
2022-08-17T06:37:18.371Z,69.49
2022-08-17T06:38:38.074Z,69.89
2022-08-17T06:39:18.297Z,69.89
2022-08-17T06:40:18.250Z,69.46
2022-08-17T06:41:18.219Z,70.19
2022-08-17T06:42:59.920Z,68.46
2022-08-17T06:43:18.173Z,68.66
2022-08-17T06:44:43.371Z,67.97
2022-08-17T06:45:18.075Z,69.46
2022-08-17T06:46:18.044Z,68.66
2022-08-17T06:47:28.931Z,67.97
2022-08-17T06:48:17.977Z,68.37
2022-08-17T06:49:17.954Z,68.46
2022-08-17T06:50:17.910Z,70.15
2022-08-17T06:51:17.871Z,68.07
2022-08-17T06:52:45.738Z,68.46
2022-08-17T06:53:17.804Z,67.47
2022-08-17T06:54:17.772Z,67.67
2022-08-17T06:55:18.698Z,67.57
2022-08-17T06:56:17.697Z,68.16
2022-08-17T06:57:17.671Z,68.23
2022-08-17T06:58:17.640Z,70.12
2022-08-17T06:59:17.595Z,67.44
2022-08-17T07:00:17.559Z,68.13
2022-08-17T07:01:17.597Z,69.73
2022-08-17T07:02:17.494Z,69.43
2022-08-17T07:03:17.474Z,69.92
2022-08-17T07:04:17.429Z,68.43
2022-08-17T07:05:17.394Z,69.23
2022-08-17T07:06:17.358Z,70.98
2022-08-17T07:07:17.344Z,70.09
2022-08-17T07:08:17.285Z,69.29
2022-08-17T07:09:17.256Z,68.99
2022-08-17T07:10:17.219Z,69.59
2022-08-17T07:11:17.183Z,70.19
2022-08-17T07:12:17.150Z,70.09
2022-08-17T07:13:17.130Z,70.95
2022-08-17T07:14:17.576Z,70.36
2022-08-17T07:15:17.047Z,69.72
2022-08-17T07:16:17.022Z,68.83
2022-08-17T07:17:16.979Z,68.53
2022-08-17T07:18:16.963Z,68.73
2022-08-17T07:19:16.915Z,68.99
2022-08-17T07:20:16.875Z,69.62
2022-08-17T07:21:18.518Z,69.13
2022-08-17T07:22:16.810Z,68.63
2022-08-17T07:23:16.774Z,69.82
2022-08-17T07:24:29.805Z,69.82
2022-08-17T07:25:16.712Z,69.92
2022-08-17T07:26:16.670Z,68.83
2022-08-17T07:27:16.642Z,68.60
2022-08-17T07:28:16.604Z,67.60
2022-08-17T07:29:16.577Z,67.67
2022-08-17T07:30:16.549Z,68.96
2022-08-17T07:31:16.502Z,67.87
2022-08-17T07:32:16.471Z,68.46
2022-08-17T07:33:16.438Z,69.13
2022-08-17T07:34:16.402Z,67.94
2022-08-17T07:35:16.367Z,67.08
2022-08-17T07:36:16.360Z,67.67
2022-08-17T07:37:16.304Z,67.87
2022-08-17T07:38:25.530Z,68.17
2022-08-17T07:39:16.237Z,67.38
2022-08-17T07:40:16.949Z,68.07
2022-08-17T07:41:16.167Z,68.57
2022-08-17T07:42:16.136Z,67.61
2022-08-17T07:43:21.990Z,68.10
2022-08-17T07:44:16.062Z,65.99
2022-08-17T07:45:16.031Z,67.47
2022-08-17T07:46:15.997Z,67.14
2022-08-17T07:47:15.966Z,66.35
2022-08-17T07:48:15.951Z,65.79
2022-08-17T07:49:15.910Z,65.99
2022-08-17T07:50:15.865Z,67.08
2022-08-17T07:51:15.831Z,68.99
2022-08-17T07:52:47.796Z,68.66
2022-08-17T07:53:15.764Z,68.17
2022-08-17T07:54:15.761Z,68.07
2022-08-17T07:55:15.699Z,66.61
2022-08-17T07:56:15.661Z,67.74
2022-08-17T07:57:15.636Z,68.53
2022-08-17T07:58:15.597Z,69.16
2022-08-17T07:59:15.564Z,69.56
2022-08-17T08:00:16.404Z,70.42
2022-08-17T08:01:15.547Z,68.66
2022-08-17T08:02:15.498Z,69.32
2022-08-17T08:03:15.453Z,69.85
2022-08-17T08:04:19.371Z,68.76
2022-08-17T08:05:15.379Z,70.25
2022-08-17T08:06:15.332Z,68.86
2022-08-17T08:07:15.313Z,69.59
2022-08-17T08:08:15.265Z,69.49
2022-08-17T08:09:15.231Z,70.09
2022-08-17T08:10:15.197Z,69.89
2022-08-17T08:11:15.207Z,69.49
2022-08-17T08:12:16.085Z,69.79
2022-08-17T08:13:15.101Z,70.35
2022-08-17T08:14:15.084Z,70.45
2022-08-17T08:15:15.030Z,69.56
2022-08-17T08:16:15.019Z,70.09
2022-08-17T08:17:14.968Z,69.89
2022-08-17T08:18:14.930Z,69.29
2022-08-17T08:19:17.220Z,69.69
2022-08-17T08:20:51.407Z,69.69
2022-08-17T08:21:14.840Z,69.56
2022-08-17T08:22:14.809Z,69.43
2022-08-17T08:23:14.763Z,67.80
2022-08-17T08:24:14.736Z,67.90
2022-08-17T08:25:14.696Z,68.01
2022-08-17T08:26:18.418Z,67.28
2022-08-17T08:27:14.647Z,69.16
2022-08-17T08:28:14.596Z,67.18
2022-08-17T08:29:14.572Z,67.74
2022-08-17T08:30:14.531Z,67.14
2022-08-17T08:31:14.498Z,67.68
2022-08-17T08:32:14.461Z,67.57
2022-08-17T08:33:14.444Z,69.72
2022-08-17T08:34:58.678Z,66.62
2022-08-17T08:35:14.364Z,67.64
2022-08-17T08:36:14.348Z,66.95
2022-08-17T08:37:19.283Z,67.05
2022-08-17T08:38:14.294Z,67.77
2022-08-17T08:39:14.239Z,67.68
2022-08-17T08:40:14.271Z,67.80
2022-08-17T08:41:14.165Z,68.30
2022-08-17T08:42:14.136Z,66.91
2022-08-17T08:43:14.099Z,67.94
2022-08-17T08:44:14.077Z,69.95
2022-08-17T08:45:14.033Z,69.36
2022-08-17T08:46:14.009Z,69.69
2022-08-17T08:47:13.968Z,69.49
2022-08-17T08:48:56.981Z,69.49
2022-08-17T08:49:14.407Z,69.79
2022-08-17T08:50:36.904Z,71.91
2022-08-17T08:51:13.831Z,70.88
2022-08-17T08:52:13.803Z,69.92
2022-08-17T08:53:13.769Z,70.72
2022-08-17T08:54:13.732Z,70.22
2022-08-17T08:55:13.712Z,70.81
2022-08-17T08:56:13.671Z,72.04
2022-08-17T08:57:33.667Z,71.18
2022-08-17T08:58:31.302Z,73.03
2022-08-17T08:59:13.578Z,73.03
2022-08-17T09:00:13.529Z,71.64
2022-08-17T09:01:16.619Z,72.54
2022-08-17T09:02:13.462Z,71.55
2022-08-17T09:03:13.449Z,70.55
2022-08-17T09:04:24.063Z,71.64
2022-08-17T09:05:14.950Z,72.14
2022-08-17T09:06:32.623Z,73.24
2022-08-17T09:07:13.292Z,70.75
2022-08-17T09:08:13.280Z,71.41
2022-08-17T09:09:13.231Z,71.34
2022-08-17T09:10:13.219Z,71.34
2022-08-17T09:11:13.157Z,71.45
2022-08-17T09:12:13.121Z,71.64
2022-08-17T09:13:21.084Z,71.75
2022-08-17T09:14:21.704Z,72.14
2022-08-17T09:15:13.282Z,72.24
2022-08-17T09:16:12.991Z,72.04
2022-08-17T09:17:12.952Z,71.34
2022-08-17T09:19:00.512Z,70.95
2022-08-17T09:19:12.898Z,70.75
2022-08-17T09:20:14.480Z,72.14
2022-08-17T09:21:12.815Z,71.15
2022-08-17T09:22:12.781Z,71.94
2022-08-17T09:23:12.746Z,72.34
2022-08-17T09:24:12.723Z,71.75
2022-08-17T09:25:12.694Z,71.45
2022-08-17T09:26:12.646Z,71.45
2022-08-17T09:27:12.612Z,71.45
2022-08-17T09:28:12.580Z,72.14
2022-08-17T09:29:12.542Z,72.34
2022-08-17T09:30:12.528Z,72.94
2022-08-17T09:31:12.475Z,71.75
2022-08-17T09:32:12.443Z,73.03
2022-08-17T09:33:12.407Z,71.75
2022-08-17T09:34:12.375Z,72.34
2022-08-17T09:35:12.340Z,72.64
2022-08-17T09:36:12.319Z,72.97
2022-08-17T09:37:12.271Z,72.87
2022-08-17T09:38:12.255Z,72.67
2022-08-17T09:39:12.208Z,72.87
2022-08-17T09:40:12.254Z,72.47
2022-08-17T09:41:12.152Z,72.08
2022-08-17T09:42:12.099Z,72.28
2022-08-17T09:43:12.067Z,73.03
2022-08-17T09:44:22.598Z,73.07
2022-08-17T09:45:11.996Z,72.47
2022-08-17T09:46:11.976Z,72.77
2022-08-17T09:47:11.941Z,72.58
2022-08-17T09:48:11.897Z,73.00
2022-08-17T09:49:11.861Z,72.91
2022-08-17T09:50:11.832Z,72.47
2022-08-17T09:51:11.807Z,72.91
2022-08-17T09:52:11.757Z,73.37
2022-08-17T09:53:11.726Z,72.91
2022-08-17T09:54:37.446Z,73.60
2022-08-17T09:55:11.656Z,73.17
2022-08-17T09:56:11.629Z,72.91
2022-08-17T09:57:29.115Z,74.16
2022-08-17T09:58:11.568Z,74.07
2022-08-17T09:59:11.521Z,73.60
2022-08-17T10:00:11.497Z,73.77
2022-08-17T10:01:11.474Z,73.57
2022-08-17T10:02:13.556Z,74.66
2022-08-17T10:03:11.394Z,73.86
2022-08-17T10:04:11.363Z,73.90
2022-08-17T10:05:11.314Z,74.20
2022-08-17T10:06:11.280Z,73.84
2022-08-17T10:07:11.247Z,73.94
2022-08-17T10:08:11.213Z,74.99
2022-08-17T10:09:11.191Z,74.40
2022-08-17T10:10:14.249Z,74.54
2022-08-17T10:11:11.108Z,75.03
2022-08-17T10:12:11.074Z,75.03
2022-08-17T10:13:11.054Z,75.03
2022-08-17T10:14:37.036Z,75.13
2022-08-17T10:15:10.970Z,74.93
2022-08-17T10:16:10.963Z,74.84
2022-08-17T10:17:10.903Z,74.73
2022-08-17T10:18:10.869Z,75.03
2022-08-17T10:19:10.846Z,74.73
2022-08-17T10:20:10.815Z,74.43
2022-08-17T10:21:10.766Z,74.67
2022-08-17T10:22:32.352Z,74.77
2022-08-17T10:23:10.696Z,75.07
2022-08-17T10:24:10.677Z,74.97
2022-08-17T10:25:22.824Z,74.37
2022-08-17T10:26:10.595Z,74.77
2022-08-17T10:27:10.556Z,74.97
2022-08-17T10:28:15.738Z,75.76
2022-08-17T10:29:10.487Z,76.26
2022-08-17T10:30:10.464Z,75.90
2022-08-17T10:31:33.750Z,75.70
2022-08-17T10:32:10.387Z,76.40
2022-08-17T10:33:10.349Z,76.70
2022-08-17T10:34:10.327Z,75.90
2022-08-17T10:35:10.279Z,76.10
2022-08-17T10:36:10.918Z,76.34
2022-08-17T10:37:10.210Z,77.00
2022-08-17T10:38:10.179Z,77.09
2022-08-17T10:39:10.141Z,77.93
2022-08-17T10:40:10.194Z,77.53
2022-08-17T10:41:10.070Z,77.53
2022-08-17T10:42:10.051Z,77.13
2022-08-17T10:43:10.001Z,77.83
2022-08-17T10:44:40.066Z,77.13
2022-08-17T10:45:09.948Z,77.63
2022-08-17T10:46:27.895Z,76.43
2022-08-17T10:47:09.862Z,77.09
2022-08-17T10:48:10.109Z,77.83
2022-08-17T10:49:09.792Z,77.89
2022-08-17T10:50:09.757Z,77.99
2022-08-17T10:51:09.731Z,78.79
2022-08-17T10:52:09.686Z,78.29
2022-08-17T10:53:09.668Z,78.29
2022-08-17T10:54:09.619Z,77.99
2022-08-17T10:55:09.582Z,78.39
2022-08-17T10:56:09.549Z,79.79
2022-08-17T10:57:09.513Z,78.89
2022-08-17T10:58:09.479Z,78.06
2022-08-17T10:59:09.453Z,78.19
2022-08-17T11:00:09.421Z,78.79
2022-08-17T11:01:09.436Z,78.69
2022-08-17T11:02:09.340Z,78.79
2022-08-17T11:03:09.313Z,77.69
2022-08-17T11:04:09.287Z,78.29
2022-08-17T11:05:09.238Z,79.28
2022-08-17T11:06:09.202Z,79.45
2022-08-17T11:07:09.166Z,77.86
2022-08-17T11:08:09.129Z,78.85
2022-08-17T11:09:09.096Z,79.35
2022-08-17T11:10:09.071Z,79.05
2022-08-17T11:11:09.028Z,79.85
2022-08-17T11:12:08.993Z,78.35
2022-08-17T11:13:08.957Z,79.05
2022-08-17T11:14:08.926Z,78.12
2022-08-17T11:15:08.901Z,77.72
2022-08-17T11:16:08.877Z,79.61
2022-08-17T11:17:08.816Z,79.27
2022-08-17T11:18:08.785Z,77.28
2022-08-17T11:19:08.751Z,77.84
2022-08-17T11:20:08.713Z,76.45
2022-08-17T11:21:08.696Z,76.55
2022-08-17T11:22:08.649Z,75.82
2022-08-17T11:23:08.609Z,76.32
2022-08-17T11:24:08.583Z,76.18
2022-08-17T11:25:08.555Z,75.68
2022-08-17T11:26:08.507Z,74.55
2022-08-17T11:27:08.473Z,74.12
2022-08-17T11:28:08.438Z,73.10
2022-08-17T11:29:08.407Z,71.83
2022-08-17T11:30:08.401Z,71.37
2022-08-17T11:31:08.424Z,70.15
2022-08-17T11:32:08.304Z,70.54
2022-08-17T11:33:08.269Z,70.05
2022-08-17T11:34:08.237Z,69.72
2022-08-17T11:35:08.233Z,68.33
2022-08-17T11:36:08.189Z,69.82
2022-08-17T11:37:08.144Z,69.46
2022-08-17T11:38:13.993Z,71.23
2022-08-17T11:39:08.073Z,69.35
2022-08-17T11:40:08.109Z,69.65
2022-08-17T11:41:08.009Z,70.05
2022-08-17T11:42:08.011Z,69.72
2022-08-17T11:43:07.948Z,68.76
2022-08-17T11:44:07.917Z,68.33
2022-08-17T11:45:07.882Z,67.15
2022-08-17T11:46:07.853Z,66.79
2022-08-17T11:47:07.831Z,67.35
2022-08-17T11:48:27.214Z,65.74
2022-08-17T11:49:07.765Z,63.93
2022-08-17T11:50:07.732Z,65.54
2022-08-17T11:51:07.693Z,65.54
2022-08-17T11:52:07.669Z,66.16
2022-08-17T11:53:07.645Z,66.36
2022-08-17T11:54:32.790Z,65.31
2022-08-17T11:55:31.889Z,66.00
2022-08-17T11:56:07.543Z,68.89
2022-08-17T11:57:07.516Z,66.72
2022-08-17T11:58:07.497Z,67.11
2022-08-17T11:59:07.454Z,67.05
2022-08-17T12:00:07.425Z,67.74
2022-08-17T12:01:07.397Z,68.73
2022-08-17T12:02:07.373Z,67.74
2022-08-17T12:03:07.366Z,68.20
2022-08-17T12:04:07.353Z,66.72
2022-08-17T12:05:12.038Z,68.27
2022-08-17T12:06:07.270Z,66.52
2022-08-17T12:07:07.211Z,67.58
2022-08-17T12:08:07.180Z,67.38
2022-08-17T12:09:07.163Z,66.09
2022-08-17T12:10:07.131Z,66.75
2022-08-17T12:11:07.089Z,67.22
2022-08-17T12:12:14.822Z,68.33
2022-08-17T12:13:07.025Z,67.54
2022-08-17T12:14:07.003Z,67.48
2022-08-17T12:15:10.539Z,68.37
2022-08-17T12:16:06.935Z,68.79
2022-08-17T12:17:06.903Z,69.12
2022-08-17T12:18:06.874Z,69.32
2022-08-17T12:19:06.844Z,68.66
2022-08-17T12:20:06.814Z,70.54
2022-08-17T12:21:06.790Z,71.23
2022-08-17T12:22:06.747Z,70.12
2022-08-17T12:23:06.725Z,71.20
2022-08-17T12:24:06.717Z,69.82
2022-08-17T12:25:06.680Z,69.32
2022-08-17T12:26:06.620Z,69.39
2022-08-17T12:27:06.612Z,69.19
2022-08-17T12:28:07.807Z,68.17
2022-08-17T12:29:06.657Z,69.16
2022-08-17T12:30:06.534Z,69.65
2022-08-17T12:31:06.476Z,67.97
2022-08-17T12:32:06.429Z,69.56
2022-08-17T12:33:06.407Z,69.45
2022-08-17T12:34:06.371Z,70.04
2022-08-17T12:35:06.336Z,67.87
2022-08-17T12:36:07.182Z,68.66
2022-08-17T12:37:06.703Z,66.36
2022-08-17T12:38:06.255Z,68.43
2022-08-17T12:39:13.038Z,67.38
2022-08-17T12:40:06.419Z,68.07
2022-08-17T12:41:06.293Z,66.82
2022-08-17T12:42:06.117Z,67.84
2022-08-17T12:43:06.301Z,69.06
2022-08-17T12:44:06.150Z,69.75
2022-08-17T12:45:06.070Z,71.14
2022-08-17T12:46:14.931Z,71.23
2022-08-17T12:47:06.199Z,70.01
2022-08-17T12:48:06.055Z,71.60
2022-08-17T12:49:06.688Z,70.61
2022-08-17T12:50:06.688Z,70.15
2022-08-17T12:51:06.689Z,70.48
2022-08-17T12:52:06.694Z,71.17